NY/NJ Local METAR Reports

 

KNYC - NYC/Central Park, NY, USA
Distance from Hoboken: NE 4mi, 7km
Updated: 04/02/2020 3:51am
Clear
Clear
 Wind from WNW
Wind: WNW 6 mph , 9 km/h
Temperature: 43°F , 6°C
Wind Chill: 39°F , 4°C
Dew Point: 25°F , -4°C
Humidity: 49%
Barometer: 29.77 inHg , 1008.1 hPa
Clouds: Clear
Visibility: 10 miles , 16 km
2020/04/02 07:51 KNYC 020751Z AUTO 30005KT 10SM CLR 06/M04 A2977 RMK AO2 SLP073 T00561039
KEWR - Newark, NJ, USA
Distance from Hoboken: WSW 8mi, 13km
Updated: 04/02/2020 3:51am
Clear
Clear
 Wind from NW
Wind: NW 15 mph , 24 km/h
Temperature: 41°F , 5°C
Wind Chill: 33°F , 1°C
Dew Point: 25°F , -4°C
Humidity: 53%
Barometer: 29.76 inHg , 1007.8 hPa
Clouds: Clear
Visibility: 10 miles , 16 km
2020/04/02 07:51 KEWR 020751Z 32013KT 10SM CLR 05/M04 A2976 RMK AO2 SLP076 T00501039
 
KLGA - NYC/La Guardia, NY, USA
Distance from Hoboken: ENE 8mi, 13km
Updated: 04/02/2020 3:51am
Clear
Clear
 Wind from NNW
Wind: NNW 14 mph , 22 km/h
Temperature: 43°F , 6°C
Wind Chill: 36°F , 2°C
Dew Point: 28°F , -2°C
Humidity: 57%
Barometer: 29.74 inHg , 1007.1 hPa
Clouds: Clear
Visibility: 10 miles , 16 km
2020/04/02 07:51 KLGA 020751Z 33012KT 10SM CLR 06/M02 A2974 RMK AO2 SLP072 T00611022
KTEB - Teterboro, NJ, USA
Distance from Hoboken: N 9mi, 14km
Updated: 04/02/2020 3:51am
Clear
Clear
 Wind from NNW
Wind: NNW 8 mph , 13 km/h
Temperature: 39°F , 4°C
Wind Chill: 33°F , 1°C
Dew Point: 27°F , -3°C
Humidity: 61%
Barometer: 29.75 inHg , 1007.5 hPa
Clouds: Clear
Visibility: 10 miles , 16 km
2020/04/02 07:51 KTEB 020751Z 33007KT 10SM CLR 04/M03 A2975 RMK AO2 SLP075 T00441033
 
KJFK - NYC/Jfk Arpt, NY, USA
Distance from Hoboken: ESE 16mi, 25km
Updated: 04/02/2020 3:51am
Clear
Clear
 Wind from N
Wind: N 16 mph , 26 km/h
Temperature: 41°F , 5°C
Wind Chill: 33°F , 1°C
Dew Point: 30°F , -1°C
Humidity: 66%
Barometer: 29.75 inHg , 1007.5 hPa
Clouds: Clear
Visibility: 10 miles , 16 km
2020/04/02 07:51 KJFK 020751Z 35014KT 10SM CLR 05/M01 A2975 RMK AO2 SLP073 T00501011
KCDW - Caldwell, NJ, USA
Distance from Hoboken: NW 16mi, 26km
Updated: 04/02/2020 3:53am
Clear
Clear
 Wind from NNW
Wind: NNW 3 mph , 6 km/h
Temperature: 41°F , 5°C
Dew Point: 25°F , -4°C
Humidity: 53%
Barometer: 29.77 inHg , 1008.1 hPa
Clouds: Clear
Visibility: 10 miles , 16 km
2020/04/02 07:53 KCDW 020753Z AUTO 33003KT 10SM CLR 05/M04 A2977 RMK AO2 SLP087 T00501039
 
KMMU - Morristown Muni, NJ, USA
Distance from Hoboken: W 20mi, 33km
Updated: 04/02/2020 4:35am
Clear
Clear
 Wind from WNW
Wind: WNW 10 mph , 17 km/h
Temperature: 37°F , 3°C
Wind Chill: 30°F , -1°C
Dew Point: 27°F , -3°C
Humidity: 65%
Barometer: 29.77 inHg , 1008.1 hPa
Clouds: Clear
Visibility: 10 miles , 16 km
2020/04/02 08:35 KMMU 020835Z AUTO 30009KT 10SM CLR 03/M03 A2977 RMK AO2
KHPN - White Plains, NY, USA
Distance from Hoboken: NE 28mi, 46km
Updated: 04/02/2020 3:56am
Clear
Clear
 Wind from NW
Wind: NW 12 mph , 19 km/h
Temperature: 37°F , 3°C
Wind Chill: 29°F , -2°C
Dew Point: 27°F , -3°C
Humidity: 65%
Barometer: 29.72 inHg , 1006.4 hPa
Clouds: Clear
Visibility: 10 miles , 16 km
2020/04/02 07:56 KHPN 020756Z 31010KT 10SM CLR 03/M03 A2972 RMK AO2 SLP068 T00281033
 
KFRG - Farmingdale, NY, USA
Distance from Hoboken: E 32mi, 52km
Updated: 04/02/2020 3:53am
Clear
Clear
 Wind from NNW
Wind: NNW 12 mph , 19 km/h
Temperature: 43°F , 6°C
Wind Chill: 37°F , 3°C
Dew Point: 28°F , -2°C
Humidity: 57%
Barometer: 29.72 inHg , 1006.4 hPa
Clouds: Clear
Visibility: 10 miles , 16 km
2020/04/02 07:53 KFRG 020753Z AUTO 34010KT 10SM CLR 06/M02 A2972 RMK AO2 SLP066 T00561022
KSMQ - Somerville, NJ, USA
Distance from Hoboken: WSW 34mi, 55km
Updated: 04/02/2020 3:53am
Clear
Clear
 Wind from varies
Wind: varies 5 mph , 7 km/h
Temperature: 39°F , 4°C
Wind Chill: 35°F , 2°C
Dew Point: 25°F , -4°C
Humidity: 56%
Barometer: 29.77 inHg , 1008.1 hPa
Clouds: Clear
Visibility: 10 miles , 16 km
2020/04/02 07:53 KSMQ 020753Z AUTO VRB04KT 10SM CLR 04/M04 A2977 RMK AO2 SLP083 T00391039
 
KBLM - Belmar/Farmdale, NJ, USA
Distance from Hoboken: S 40mi, 64km
Updated: 04/02/2020 3:56am
Clear
Clear
 Wind from WNW
Wind: WNW 8 mph , 13 km/h
Temperature: 39°F , 4°C
Wind Chill: 33°F , 1°C
Dew Point: 27°F , -3°C
Humidity: 61%
Barometer: 29.76 inHg , 1007.8 hPa
Clouds: Clear
Visibility: 10 miles , 16 km
2020/04/02 07:56 KBLM 020756Z AUTO 30007KT 10SM CLR 04/M03 A2976 RMK AO2 SLP080 T00391028
K12N - Andover, NJ, USA
Distance from Hoboken: WNW 41mi, 67km
Updated: 04/02/2020 3:54am

 Wind from N
Wind: N 8 mph , 13 km/h, Gust: 18 mph , 30 km/h
Temperature: 37°F , 3°C
Wind Chill: 31°F , -1°C
Dew Point: 25°F , -4°C
Humidity: 60%
Barometer: 29.78 inHg , 1008.5 hPa
2020/04/02 07:54 K12N 020754Z AUTO 36007G16KT 330V030 03/M04 A2978 RMK AO1 SLP088 T00281039
 
KFWN - Sussex, NJ, USA
Distance from Hoboken: NW 45mi, 72km
Updated: 04/02/2020 3:53am
Clear
Clear
 Wind from NNW
Wind: NNW 6 mph , 9 km/h
Temperature: 37°F , 3°C
Wind Chill: 32°F , 0°C
Dew Point: 25°F , -4°C
Humidity: 60%
Barometer: 29.77 inHg , 1008.1 hPa
Clouds: Clear
Visibility: 10 miles , 16 km
2020/04/02 07:53 KFWN 020753Z AUTO 34005KT 10SM CLR 03/M04 A2977 RMK AO2 SLP084 T00281044
KISP - Islip, NY, USA
Distance from Hoboken: E 49mi, 79km
Updated: 04/02/2020 3:56am
Clear
Clear
 Wind from NNW
Wind: NNW 20 mph , 31 km/h, Gust: 29 mph , 46 km/h
Temperature: 39°F , 4°C
Wind Chill: 29°F , -2°C
Dew Point: 28°F , -2°C
Humidity: 65%
Barometer: 29.70 inHg , 1005.8 hPa
Clouds: Clear
Visibility: 10 miles , 16 km
2020/04/02 07:56 KISP 020756Z AUTO 33017G25KT 10SM CLR 04/M02 A2970 RMK AO2 PK WND 35028/0727 SLP058 T00441017